Time;durP1;ratioP1;P1;durP2;ratioP2;P2;SDS_P1;SDS_P2;PMS_P1;PMS_P2;Temp;Humidity;BMP_temperature;BMP_pressure;BME280_temperature;BME280_humidity;BME280_pressure;Samples;Min_cycle;Max_cycle;Signal;HPM_P1;HPM_P2
2023/07/25 00:00:44;;;;;;;4.00;0.57;;;;;;;17.06;76.44;100484.56;7364016;19;20033;-62
2023/07/25 00:03:11;;;;;;;4.32;0.60;;;;;;;17.06;77.16;100481.91;7362917;19;20489;-62
2023/07/25 00:05:38;;;;;;;4.97;0.60;;;;;;;17.04;77.09;100486.59;7358518;19;20089;-62
2023/07/25 00:08:05;;;;;;;5.30;0.63;;;;;;;17.03;77.03;100488.44;7360154;19;20022;-63
2023/07/25 00:10:34;;;;;;;6.15;1.33;;;;;;;17.05;77.32;100481.09;7357647;19;20019;-63
2023/07/25 00:13:01;;;;;;;4.75;0.70;;;;;;;17.02;77.25;100483.31;7364738;19;20027;-63
2023/07/25 00:15:28;;;;;;;4.10;0.60;;;;;;;17.04;77.21;100481.28;7361105;19;20023;-65
2023/07/25 00:17:55;;;;;;;3.70;0.60;;;;;;;16.96;76.94;100486.81;7363226;19;20039;-63
2023/07/25 00:20:22;;;;;;;4.28;0.60;;;;;;;16.97;76.78;100488.41;7360116;19;20120;-63
2023/07/25 00:22:49;;;;;;;2.35;0.50;;;;;;;16.96;76.74;100487.63;7361606;19;20456;-63
2023/07/25 00:25:17;;;;;;;3.03;0.60;;;;;;;16.97;76.88;100488.41;7359874;19;20026;-62
2023/07/25 00:27:44;;;;;;;3.17;0.57;;;;;;;16.98;77.20;100490.06;7359441;19;20990;-62
2023/07/25 00:30:11;;;;;;;4.65;0.75;;;;;;;17.02;77.04;100493.94;7360977;19;20496;-62
2023/07/25 00:32:38;;;;;;;4.07;0.57;;;;;;;17.01;76.40;100489.66;7363159;19;20361;-62
2023/07/25 00:35:05;;;;;;;8.45;0.50;;;;;;;16.95;76.72;100488.63;7362113;19;20042;-62
2023/07/25 00:37:32;;;;;;;4.85;0.60;;;;;;;16.93;76.87;100495.97;7363529;19;20137;-63
2023/07/25 00:39:59;;;;;;;8.35;0.50;;;;;;;16.90;77.09;100487.59;7357949;19;20074;-64
2023/07/25 00:42:26;;;;;;;8.65;0.50;;;;;;;16.90;76.54;100488.44;7355109;19;20908;-62
2023/07/25 00:44:53;;;;;;;3.08;0.40;;;;;;;16.86;76.71;100489.84;7356863;19;20039;-62
2023/07/25 00:47:22;;;;;;;2.80;0.50;;;;;;;16.85;77.14;100495.38;7359178;19;20014;-62
2023/07/25 00:49:50;;;;;;;4.95;0.70;;;;;;;16.84;76.59;100489.22;7357189;19;20014;-62
2023/07/25 00:52:17;;;;;;;5.07;0.60;;;;;;;16.85;77.27;100487.41;7359885;19;20018;-62
2023/07/25 00:54:49;;;;;;;4.28;0.70;;;;;;;16.87;77.69;100490.66;7357652;19;20127;-62
2023/07/25 00:57:19;;;;;;;2.70;0.43;;;;;;;16.84;77.33;100488.41;7359818;19;21680;-62
2023/07/25 00:59:46;;;;;;;5.15;0.68;;;;;;;16.85;77.65;100476.75;7361293;19;21277;-63
2023/07/25 01:02:14;;;;;;;4.28;0.50;;;;;;;16.85;77.00;100482.91;7356510;19;20015;-62
2023/07/25 01:04:42;;;;;;;4.68;0.52;;;;;;;16.85;76.84;100474.94;7361320;19;20424;-62
2023/07/25 01:07:13;;;;;;;4.90;0.70;;;;;;;16.86;77.25;100478.41;7358720;19;20014;-62
2023/07/25 01:09:44;;;;;;;6.05;0.75;;;;;;;16.83;77.26;100466.31;7356583;19;20015;-62
2023/07/25 01:12:12;;;;;;;3.90;0.50;;;;;;;16.84;77.35;100469.81;7359232;19;20309;-61
2023/07/25 01:14:40;;;;;;;5.50;0.60;;;;;;;16.83;77.18;100474.28;7361300;19;20109;-62
2023/07/25 01:17:18;;;;;;;3.65;0.50;;;;;;;16.84;77.79;100472.47;7360730;19;20007;-62
2023/07/25 01:19:46;;;;;;;2.92;0.40;;;;;;;16.86;77.38;100471.25;7360920;19;21418;-62
2023/07/25 01:22:14;;;;;;;5.43;0.60;;;;;;;16.88;77.55;100466.53;7358979;19;20336;-62
2023/07/25 01:24:44;;;;;;;3.42;0.50;;;;;;;16.85;77.39;100463.47;7355618;19;20114;-62
2023/07/25 01:27:13;;;;;;;4.63;0.60;;;;;;;16.85;77.36;100456.31;7357206;19;20022;-63
2023/07/25 01:29:40;;;;;;;4.32;0.60;;;;;;;16.85;77.32;100450.19;7359569;19;20309;-62
2023/07/25 01:32:08;;;;;;;3.58;0.70;;;;;;;16.87;77.38;100453.44;7359921;19;20023;-62
2023/07/25 01:34:35;;;;;;;7.07;0.57;;;;;;;16.89;77.06;100443.44;7359582;19;20032;-63
2023/07/25 01:37:02;;;;;;;3.53;0.50;;;;;;;16.88;76.75;100439.97;7358596;19;20019;-63
2023/07/25 01:39:29;;;;;;;3.95;0.50;;;;;;;16.88;76.69;100447.09;7347317;19;20022;-64
2023/07/25 01:41:56;;;;;;;4.85;0.50;;;;;;;16.89;76.95;100451.41;7357474;19;20022;-63
2023/07/25 01:44:23;;;;;;;3.70;0.57;;;;;;;16.87;77.01;100450.78;7355526;19;20029;-63
2023/07/25 01:46:50;;;;;;;2.25;1.02;;;;;;;16.88;76.62;100458.56;7375384;19;20195;-62
2023/07/25 01:49:17;;;;;;;2.72;0.50;;;;;;;16.90;76.37;100458.38;7370475;19;20746;-62
2023/07/25 01:51:44;;;;;;;3.10;0.52;;;;;;;16.92;76.26;100459.78;7369122;19;20459;-63
2023/07/25 01:54:11;;;;;;;4.93;0.57;;;;;;;16.89;76.15;100464.69;7369107;19;20424;-62
2023/07/25 01:56:38;;;;;;;4.40;0.60;;;;;;;16.88;76.73;100465.72;7373558;19;20386;-62
2023/07/25 01:59:05;;;;;;;5.22;0.47;;;;;;;16.85;76.54;100463.47;7371844;19;20359;-63
2023/07/25 02:01:32;;;;;;;4.85;0.70;;;;;;;16.83;77.21;100458.34;7373032;19;20355;-62
2023/07/25 02:03:59;;;;;;;7.13;0.70;;;;;;;16.81;77.01;100462.25;7370186;19;20022;-62
2023/07/25 02:06:26;;;;;;;2.35;0.52;;;;;;;16.79;77.04;100461.63;7372321;19;20010;-62
2023/07/25 02:08:53;;;;;;;4.10;0.73;;;;;;;16.76;76.99;100470.81;7367099;19;20086;-62
2023/07/25 02:11:20;;;;;;;4.88;0.60;;;;;;;16.75;77.31;100479.81;7373009;19;20022;-61
2023/07/25 02:13:47;;;;;;;4.20;0.90;;;;;;;16.72;76.73;100468.75;7369333;19;20377;-62
2023/07/25 02:16:14;;;;;;;3.40;0.50;;;;;;;16.58;77.40;100473.19;7373506;19;20015;-63
2023/07/25 02:18:41;;;;;;;3.95;0.50;;;;;;;16.56;77.80;100480.53;7371639;19;20014;-61
2023/07/25 02:21:08;;;;;;;5.15;0.60;;;;;;;16.52;78.55;100471.34;7372546;19;20056;-62
2023/07/25 02:23:35;;;;;;;2.20;0.60;;;;;;;16.50;78.72;100487.50;7367427;19;20015;-62
2023/07/25 02:26:02;;;;;;;2.88;0.60;;;;;;;16.50;78.89;100478.69;7369020;19;20843;-62
2023/07/25 02:28:29;;;;;;;4.32;0.98;;;;;;;16.49;78.94;100485.84;7371668;19;20022;-62
2023/07/25 02:30:57;;;;;;;4.78;0.70;;;;;;;16.52;79.24;100480.13;7371099;19;20971;-62
2023/07/25 02:33:24;;;;;;;6.50;0.65;;;;;;;16.50;79.20;100487.50;7371635;19;21074;-61
2023/07/25 02:35:51;;;;;;;7.40;1.05;;;;;;;16.46;79.47;100477.44;7370065;19;20591;-64
2023/07/25 02:38:21;;;;;;;7.93;1.15;;;;;;;16.41;79.59;100479.88;7366890;19;20545;-64
2023/07/25 02:40:48;;;;;;;5.10;0.68;;;;;;;16.38;79.63;100473.13;7371216;19;21071;-65
2023/07/25 02:43:15;;;;;;;4.03;0.60;;;;;;;16.34;80.08;100471.91;7368926;19;20039;-62
2023/07/25 02:45:42;;;;;;;2.40;0.63;;;;;;;16.32;81.23;100467.78;7369748;19;20473;-61
2023/07/25 02:48:14;;;;;;;4.97;0.60;;;;;;;16.31;80.75;100469.63;7369225;19;20025;-62
2023/07/25 02:50:41;;;;;;;4.80;0.82;;;;;;;16.31;80.73;100466.16;7372327;19;20890;-62
2023/07/25 02:53:08;;;;;;;4.15;0.80;;;;;;;16.35;80.43;100467.41;7367396;19;20044;-62
2023/07/25 02:55:37;;;;;;;6.95;0.80;;;;;;;16.34;79.82;100476.41;7370692;19;20043;-62
2023/07/25 02:58:04;;;;;;;8.38;0.98;;;;;;;16.31;80.44;100474.13;7363252;19;20030;-61
2023/07/25 03:00:31;;;;;;;3.20;0.70;;;;;;;16.32;81.08;100479.25;7362818;19;20043;-63
2023/07/25 03:02:58;;;;;;;3.13;0.55;;;;;;;16.33;80.43;100472.09;7363824;19;20876;-63
2023/07/25 03:05:28;;;;;;;6.28;0.70;;;;;;;16.34;81.11;100482.53;7364727;19;20015;-63
2023/07/25 03:07:57;;;;;;;7.97;1.10;;;;;;;16.35;80.83;100475.38;7360108;19;21886;-63
2023/07/25 03:10:23;;;;;;;2.22;0.50;;;;;;;16.31;81.00;100480.25;7359981;19;20203;-63
2023/07/25 03:12:52;;;;;;;5.60;0.77;;;;;;;16.30;81.11;100475.16;7362225;19;20113;-63
2023/07/25 03:15:20;;;;;;;3.75;0.63;;;;;;;16.26;81.52;100474.72;7361890;19;20082;-62
2023/07/25 03:17:47;;;;;;;5.20;0.80;;;;;;;16.29;82.20;100473.50;7364742;19;21163;-63
2023/07/25 03:20:14;;;;;;;5.60;0.80;;;;;;;16.26;82.27;100480.84;7365261;19;21670;-63
2023/07/25 03:22:41;;;;;;;4.85;0.50;;;;;;;16.26;82.73;100482.69;7362185;19;20097;-63
2023/07/25 03:25:09;;;;;;;2.92;0.70;;;;;;;16.21;82.41;100479.81;7362454;19;20018;-63
2023/07/25 03:27:36;;;;;;;4.30;0.70;;;;;;;16.14;82.37;100486.94;7364327;19;20145;-63
2023/07/25 03:30:04;;;;;;;3.80;0.60;;;;;;;16.12;82.90;100488.97;7360865;19;20031;-62
2023/07/25 03:32:31;;;;;;;4.30;0.80;;;;;;;16.10;83.30;100486.50;7365749;19;20098;-62
2023/07/25 03:34:58;;;;;;;3.65;0.60;;;;;;;16.07;83.12;100483.41;7361875;19;20018;-62
2023/07/25 03:37:25;;;;;;;3.63;0.68;;;;;;;16.07;83.13;100483.41;7361513;19;20022;-63
2023/07/25 03:39:52;;;;;;;8.23;0.80;;;;;;;16.08;83.33;100488.53;7357902;19;20022;-63
2023/07/25 03:42:19;;;;;;;4.78;0.80;;;;;;;16.09;83.92;100484.88;7359523;19;20102;-63
2023/07/25 03:44:47;;;;;;;6.47;0.77;;;;;;;16.07;84.00;100480.75;7358281;19;20021;-62
2023/07/25 03:47:14;;;;;;;5.32;0.63;;;;;;;16.06;83.94;100482.59;7358894;19;20078;-66
2023/07/25 03:49:42;;;;;;;3.60;0.60;;;;;;;16.06;84.18;100481.78;7360883;19;20026;-67
2023/07/25 03:52:09;;;;;;;3.08;0.68;;;;;;;16.05;84.90;100488.13;7360457;19;20021;-62
2023/07/25 03:54:36;;;;;;;4.22;0.70;;;;;;;16.07;84.63;100480.75;7357649;19;20026;-62
2023/07/25 03:57:03;;;;;;;2.78;0.63;;;;;;;16.06;84.65;100474.63;7363121;19;20024;-64
2023/07/25 03:59:31;;;;;;;5.50;0.60;;;;;;;16.09;84.53;100478.75;7360103;19;20035;-62
2023/07/25 04:01:58;;;;;;;4.78;0.75;;;;;;;16.10;83.99;100489.16;7361719;19;20624;-62
2023/07/25 04:04:25;;;;;;;3.03;0.70;;;;;;;16.12;83.64;100483.66;7362354;19;20167;-63
2023/07/25 04:06:52;;;;;;;5.22;0.70;;;;;;;16.12;83.58;100481.81;7363371;19;20010;-61
2023/07/25 04:09:19;;;;;;;6.25;0.85;;;;;;;16.15;82.85;100480.63;7352843;19;20362;-63
2023/07/25 04:11:46;;;;;;;6.47;0.70;;;;;;;16.11;82.78;100482.00;7360541;19;20014;-62
2023/07/25 04:14:13;;;;;;;5.07;0.50;;;;;;;16.09;82.92;100482.22;7359988;19;20022;-63
2023/07/25 04:16:40;;;;;;;4.90;0.60;;;;;;;16.08;83.29;100479.75;7364599;19;20051;-63
2023/07/25 04:19:07;;;;;;;5.97;0.70;;;;;;;16.06;83.46;100484.44;7360098;19;20022;-63
2023/07/25 04:21:34;;;;;;;6.45;0.98;;;;;;;16.07;83.59;100483.41;7362962;19;20068;-63
2023/07/25 04:24:01;;;;;;;5.10;0.80;;;;;;;16.07;83.69;100486.91;7357272;19;21327;-62
2023/07/25 04:26:28;;;;;;;2.58;0.60;;;;;;;16.07;83.84;100486.06;7362848;19;20862;-62
2023/07/25 04:28:55;;;;;;;2.58;0.73;;;;;;;16.09;84.34;100492.84;7360161;19;20013;-61
2023/07/25 04:31:22;;;;;;;9.77;1.08;;;;;;;16.14;84.28;100501.03;7363099;19;20022;-61
2023/07/25 04:33:49;;;;;;;3.58;1.02;;;;;;;16.19;84.65;100500.44;7358274;19;20114;-61
2023/07/25 04:36:16;;;;;;;5.70;0.88;;;;;;;16.23;84.40;100501.69;7362376;19;20014;-62
2023/07/25 04:38:43;;;;;;;4.00;0.60;;;;;;;16.27;84.27;100502.91;7355254;19;20007;-62
2023/07/25 04:41:10;;;;;;;4.78;1.25;;;;;;;16.29;84.47;100508.03;7360934;19;20018;-62
2023/07/25 04:43:37;;;;;;;4.20;0.70;;;;;;;16.33;84.46;100507.44;7360325;19;20023;-62
2023/07/25 04:46:04;;;;;;;6.40;0.63;;;;;;;16.31;83.67;100506.81;7358181;19;20026;-62
2023/07/25 04:48:31;;;;;;;5.30;0.60;;;;;;;16.31;83.13;100508.63;7357981;19;20052;-62
2023/07/25 04:50:58;;;;;;;2.80;0.60;;;;;;;16.31;83.47;100512.13;7359337;19;20077;-63
2023/07/25 04:53:25;;;;;;;5.82;0.73;;;;;;;16.32;83.83;100510.28;7359187;19;20022;-62
2023/07/25 04:55:52;;;;;;;4.43;0.98;;;;;;;16.31;84.19;100512.13;7361212;19;20347;-61
2023/07/25 04:58:19;;;;;;;4.63;0.75;;;;;;;16.29;83.75;100513.34;7360655;19;20021;-62
2023/07/25 05:00:47;;;;;;;6.30;0.90;;;;;;;16.30;84.09;100499.06;7357595;19;20029;-61
2023/07/25 05:03:14;;;;;;;3.58;0.70;;;;;;;16.34;84.18;100510.91;7360077;19;20015;-62
2023/07/25 05:05:41;;;;;;;6.43;2.15;;;;;;;16.31;83.41;100513.94;7359673;19;20019;-62
2023/07/25 05:08:08;;;;;;;7.78;0.80;;;;;;;16.27;83.40;100516.19;7356501;19;20776;-63
2023/07/25 05:10:35;;;;;;;3.25;0.68;;;;;;;16.24;83.32;100512.09;7358316;19;20560;-62
2023/07/25 05:13:02;;;;;;;3.28;0.60;;;;;;;16.27;83.79;100518.84;7360843;19;20089;-62
2023/07/25 05:15:29;;;;;;;4.38;0.70;;;;;;;16.32;83.99;100518.25;7360213;19;20018;-62
2023/07/25 05:17:56;;;;;;;7.18;0.90;;;;;;;16.33;83.86;100519.88;7357495;19;20010;-62
2023/07/25 05:20:23;;;;;;;5.82;1.05;;;;;;;16.33;83.96;100523.38;7359036;19;20968;-62
2023/07/25 05:22:50;;;;;;;7.47;1.10;;;;;;;16.31;83.87;100517.44;7358302;19;20078;-62
2023/07/25 05:25:17;;;;;;;4.53;0.90;;;;;;;16.33;84.15;100531.34;7356500;19;20441;-62
2023/07/25 05:27:44;;;;;;;4.43;0.82;;;;;;;16.34;84.04;100522.34;7361311;19;20106;-62
2023/07/25 05:30:11;;;;;;;3.72;0.70;;;;;;;16.37;83.31;100524.59;7358666;19;20014;-63
2023/07/25 05:32:39;;;;;;;5.95;0.88;;;;;;;16.42;83.70;100530.16;7359548;19;20022;-62
2023/07/25 05:35:06;;;;;;;4.57;1.00;;;;;;;16.43;83.08;100529.13;7360255;19;20097;-62
2023/07/25 05:37:38;;;;;;;8.20;0.68;;;;;;;16.47;83.29;100525.06;7358257;19;20014;-62
2023/07/25 05:40:06;;;;;;;3.42;0.82;;;;;;;16.47;83.51;100525.06;7357620;19;20046;-62
2023/07/25 05:42:33;;;;;;;4.78;0.80;;;;;;;16.47;83.15;100532.19;7360620;19;20050;-61
2023/07/25 05:45:00;;;;;;;6.47;0.82;;;;;;;16.46;82.91;100534.03;7358794;19;20055;-62
2023/07/25 05:47:28;;;;;;;4.68;1.15;;;;;;;16.49;83.48;100538.97;7354847;19;20032;-62
2023/07/25 05:49:56;;;;;;;5.65;1.35;;;;;;;16.52;83.54;100527.13;7356941;19;20566;-61
2023/07/25 05:52:23;;;;;;;5.10;1.23;;;;;;;16.48;83.44;100531.19;7358276;19;20046;-63
2023/07/25 05:54:52;;;;;;;9.50;0.95;;;;;;;16.49;83.40;100531.00;7357761;19;20026;-63
2023/07/25 05:57:19;;;;;;;4.18;1.00;;;;;;;16.50;83.15;100534.47;7358386;19;20053;-64
2023/07/25 05:59:47;;;;;;;5.20;1.20;;;;;;;16.51;83.32;100539.56;7358897;19;20021;-64
2023/07/25 06:02:14;;;;;;;5.60;0.90;;;;;;;16.51;83.06;100542.22;7360043;19;20377;-62
2023/07/25 06:04:42;;;;;;;8.23;1.50;;;;;;;16.49;82.92;100541.63;7359033;19;20021;-63
2023/07/25 06:07:10;;;;;;;7.10;1.17;;;;;;;16.50;82.89;100539.78;7359083;19;20423;-63
2023/07/25 06:09:36;;;;;;;8.75;1.13;;;;;;;16.51;83.23;100542.22;7354309;19;20793;-62
2023/07/25 06:12:04;;;;;;;6.03;0.98;;;;;;;16.51;82.90;100544.06;7360577;19;20010;-62
2023/07/25 06:14:31;;;;;;;5.15;0.90;;;;;;;16.51;82.51;100546.72;7355002;19;20052;-61
2023/07/25 06:16:58;;;;;;;5.55;0.90;;;;;;;16.49;82.27;100544.28;7359166;19;20872;-61
2023/07/25 06:19:25;;;;;;;5.40;1.00;;;;;;;16.52;82.59;100553.69;7357996;19;20010;-62
2023/07/25 06:21:52;;;;;;;6.25;0.88;;;;;;;16.55;82.49;100553.31;7359647;19;20082;-63
2023/07/25 06:24:19;;;;;;;7.55;0.90;;;;;;;16.56;82.33;100552.25;7352608;19;20010;-63
2023/07/25 06:26:46;;;;;;;8.93;1.10;;;;;;;16.56;82.16;100554.91;7360171;19;20102;-63
2023/07/25 06:29:13;;;;;;;4.10;1.10;;;;;;;16.55;82.87;100553.31;7355190;19;20073;-62
2023/07/25 06:31:40;;;;;;;6.97;1.17;;;;;;;16.60;84.14;100557.03;7360297;19;20026;-63
2023/07/25 06:34:07;;;;;;;7.57;1.70;;;;;;;16.67;83.68;100560.50;7363199;19;20018;-62
2023/07/25 06:36:34;;;;;;;6.25;1.30;;;;;;;16.71;83.36;100557.47;7365511;19;20024;-61
2023/07/25 06:39:02;;;;;;;4.75;1.25;;;;;;;16.68;82.83;100562.16;7358887;19;20800;-62
2023/07/25 06:41:29;;;;;;;5.35;0.80;;;;;;;16.73;82.51;100558.09;7365245;19;20089;-62
2023/07/25 06:43:57;;;;;;;9.00;1.52;;;;;;;16.75;82.09;100566.69;7361511;19;20018;-62
2023/07/25 06:46:24;;;;;;;8.23;1.05;;;;;;;16.81;81.14;100564.03;7361553;19;20589;-62
2023/07/25 06:48:52;;;;;;;10.43;0.80;;;;;;;16.88;80.44;100564.88;7359746;19;20090;-62
2023/07/25 06:51:20;;;;;;;5.63;0.80;;;;;;;16.96;80.71;100553.25;7364705;19;20017;-62
2023/07/25 06:53:47;;;;;;;7.57;1.10;;;;;;;17.00;80.12;100562.47;7360592;19;20014;-64
2023/07/25 06:56:14;;;;;;;7.28;1.23;;;;;;;17.07;80.57;100569.41;7368087;19;20031;-62
2023/07/25 06:58:41;;;;;;;2.72;0.80;;;;;;;17.12;81.54;100568.03;7362965;19;20135;-63
2023/07/25 07:01:08;;;;;;;4.07;0.88;;;;;;;17.14;80.29;100564.13;7366047;19;20487;-63
2023/07/25 07:03:35;;;;;;;3.03;0.70;;;;;;;17.16;79.77;100570.06;7364746;19;20025;-64
2023/07/25 07:06:03;;;;;;;7.80;1.10;;;;;;;17.20;79.40;100568.63;7361784;19;20550;-62
2023/07/25 07:08:30;;;;;;;6.22;1.10;;;;;;;17.17;78.25;100569.03;7361870;19;20029;-62
2023/07/25 07:10:57;;;;;;;3.88;1.10;;;;;;;17.21;78.76;100577.44;7362178;19;20017;-63
2023/07/25 07:13:24;;;;;;;5.10;0.70;;;;;;;17.26;79.12;100575.00;7362816;19;20033;-62
2023/07/25 07:15:52;;;;;;;7.55;0.70;;;;;;;17.33;77.56;100583.78;7364786;19;20010;-67
2023/07/25 07:18:19;;;;;;;7.70;1.02;;;;;;;17.35;76.96;100581.75;7364269;19;20247;-64
2023/07/25 07:20:50;;;;;;;4.18;0.75;;;;;;;17.31;77.12;100578.69;7362866;19;20014;-63
2023/07/25 07:23:17;;;;;;;3.67;0.70;;;;;;;17.35;77.31;100577.25;7360666;19;20014;-63
2023/07/25 07:25:45;;;;;;;3.50;0.68;;;;;;;17.41;77.71;100573.78;7363037;19;20014;-63
2023/07/25 07:28:12;;;;;;;7.35;0.65;;;;;;;17.45;77.49;100574.19;7362772;19;20394;-63
2023/07/25 07:30:41;;;;;;;3.08;0.70;;;;;;;17.49;77.81;100576.22;7361492;19;20512;-63
2023/07/25 07:33:08;;;;;;;9.23;1.00;;;;;;;17.53;77.31;100577.44;7365655;19;20025;-63
2023/07/25 07:35:35;;;;;;;3.85;1.02;;;;;;;17.56;77.53;100584.22;7364307;19;20014;-62
2023/07/25 07:38:03;;;;;;;4.30;0.60;;;;;;;17.60;76.75;100574.00;7359422;19;20085;-63
2023/07/25 07:40:30;;;;;;;6.47;0.60;;;;;;;17.68;77.95;100573.78;7362275;19;20006;-62
2023/07/25 07:42:57;;;;;;;4.20;0.80;;;;;;;17.67;77.12;100577.50;7359900;19;20149;-63
2023/07/25 07:45:25;;;;;;;5.72;0.80;;;;;;;17.66;77.76;100583.84;7365429;19;20493;-61
2023/07/25 07:47:52;;;;;;;4.10;0.77;;;;;;;17.67;77.97;100580.16;7361243;19;20590;-62
2023/07/25 07:50:19;;;;;;;6.57;1.13;;;;;;;17.64;78.06;100581.38;7357586;19;20015;-65
2023/07/25 07:52:46;;;;;;;2.40;1.20;;;;;;;17.57;76.80;100580.53;7357872;19;20193;-62
2023/07/25 07:55:14;;;;;;;5.07;1.13;;;;;;;17.53;76.75;100582.78;7362070;19;20041;-62
2023/07/25 07:57:44;;;;;;;5.38;1.25;;;;;;;17.67;77.23;100588.97;7360996;19;20042;-63
2023/07/25 08:00:14;;;;;;;8.05;1.30;;;;;;;17.86;76.73;100582.81;7362121;19;20035;-63
2023/07/25 08:02:42;;;;;;;6.05;1.30;;;;;;;17.97;75.82;100578.72;7361733;19;20082;-63
2023/07/25 08:05:11;;;;;;;4.00;1.05;;;;;;;17.95;74.10;100591.41;7361757;19;20521;-63
2023/07/25 08:07:39;;;;;;;8.32;1.02;;;;;;;17.97;72.07;100586.69;7360556;19;20027;-63
2023/07/25 08:10:07;;;;;;;7.57;1.02;;;;;;;17.87;71.29;100587.13;7359684;19;20469;-63
2023/07/25 08:12:34;;;;;;;3.97;0.85;;;;;;;17.89;72.19;100585.06;7361298;19;20002;-64
2023/07/25 08:15:02;;;;;;;3.97;0.98;;;;;;;17.85;72.57;100583.00;7359503;19;20171;-65
2023/07/25 08:17:29;;;;;;;5.35;0.95;;;;;;;17.86;72.83;100590.81;7356191;19;20384;-62
2023/07/25 08:19:57;;;;;;;5.00;1.00;;;;;;;17.90;73.26;100591.19;7363065;19;20958;-63
2023/07/25 08:22:24;;;;;;;2.17;0.70;;;;;;;17.98;71.05;100595.50;7360270;19;20011;-62
2023/07/25 08:24:55;;;;;;;5.28;1.10;;;;;;;18.06;69.71;100587.28;7357281;19;20605;-63
2023/07/25 08:27:22;;;;;;;4.95;0.70;;;;;;;18.06;69.17;100585.44;7359264;19;20374;-63
2023/07/25 08:29:49;;;;;;;3.28;0.60;;;;;;;18.11;68.73;100587.47;7361731;19;20022;-64
2023/07/25 08:32:16;;;;;;;6.88;0.50;;;;;;;18.18;68.70;100588.31;7361931;19;20014;-63
2023/07/25 08:34:45;;;;;;;2.15;0.60;;;;;;;18.23;67.01;100586.66;7360560;19;20022;-64
2023/07/25 08:37:12;;;;;;;1.98;0.45;;;;;;;18.25;66.73;100589.91;7359758;19;21068;-63
2023/07/25 08:39:39;;;;;;;2.90;0.60;;;;;;;18.29;64.86;100600.94;7358478;19;20052;-62
2023/07/25 08:42:09;;;;;;;5.10;0.60;;;;;;;18.29;65.38;100596.44;7362418;19;20631;-62
2023/07/25 08:44:39;;;;;;;3.63;0.80;;;;;;;18.26;64.56;100590.72;7361113;19;20022;-63
2023/07/25 08:47:17;;;;;;;2.35;0.40;;;;;;;18.25;63.46;100592.56;7358661;19;20050;-62
2023/07/25 08:49:47;;;;;;;2.78;0.38;;;;;;;18.19;62.15;100596.06;7356198;19;20050;-63
2023/07/25 08:52:17;;;;;;;3.42;0.38;;;;;;;18.15;63.47;100591.38;7357560;19;20025;-63
2023/07/25 08:54:47;;;;;;;2.15;0.50;;;;;;;18.16;64.93;100591.16;7356590;19;20093;-61
2023/07/25 08:57:18;;;;;;;3.72;0.40;;;;;;;18.20;65.57;100584.38;7361727;19;20038;-62
2023/07/25 08:59:50;;;;;;;1.17;0.40;;;;;;;18.26;64.71;100591.56;7358546;19;20018;-63
2023/07/25 09:02:18;;;;;;;1.60;0.50;;;;;;;18.28;63.06;100599.34;7363574;19;20620;-63
2023/07/25 09:04:47;;;;;;;2.60;0.30;;;;;;;18.27;62.43;100601.19;7358539;19;20026;-63
2023/07/25 09:07:14;;;;;;;3.67;0.40;;;;;;;18.35;59.80;100597.47;7358287;19;20014;-63
2023/07/25 09:09:41;;;;;;;1.48;0.30;;;;;;;18.39;59.02;100601.34;7355109;19;20054;-62
2023/07/25 09:12:09;;;;;;;4.13;0.20;;;;;;;18.42;59.11;100600.94;7361174;19;20044;-62
2023/07/25 09:14:38;;;;;;;5.88;0.30;;;;;;;18.53;58.87;100608.28;7359635;19;20006;-63
2023/07/25 09:17:06;;;;;;;2.17;0.20;;;;;;;18.92;57.56;100601.19;7359785;19;20010;-63
2023/07/25 09:19:33;;;;;;;2.50;0.30;;;;;;;18.93;57.30;100611.63;7360382;19;20019;-64
2023/07/25 09:22:01;;;;;;;2.65;0.30;;;;;;;18.92;57.82;100607.34;7358248;19;20015;-63
2023/07/25 09:24:38;;;;;;;0.98;0.20;;;;;;;18.83;59.18;100615.78;7358234;19;20379;-62
2023/07/25 09:27:18;;;;;;;1.27;0.38;;;;;;;18.91;58.42;100612.88;7359694;19;20010;-63
2023/07/25 09:29:50;;;;;;;1.10;0.30;;;;;;;19.04;58.57;100610.97;7358048;19;20308;-62
2023/07/25 09:32:27;;;;;;;3.67;0.22;;;;;;;19.15;56.62;100620.94;7359629;19;20006;-62
2023/07/25 09:35:05;;;;;;;1.23;0.20;;;;;;;19.15;56.44;100622.78;7359082;19;20063;-62
2023/07/25 09:37:33;;;;;;;2.42;0.30;;;;;;;19.14;56.82;100611.31;7356929;19;20086;-63
2023/07/25 09:40:00;;;;;;;1.45;0.28;;;;;;;19.09;55.69;100616.50;7356687;19;20046;-62
2023/07/25 09:42:27;;;;;;;1.65;0.50;;;;;;;19.02;56.92;100613.03;7359936;19;20495;-62
2023/07/25 09:44:54;;;;;;;0.80;0.30;;;;;;;18.98;57.11;100622.50;7357083;19;20018;-63
2023/07/25 09:47:26;;;;;;;1.67;0.25;;;;;;;18.97;58.11;100620.84;7359776;19;20447;-63
2023/07/25 09:49:56;;;;;;;0.60;0.30;;;;;;;18.95;58.17;100622.91;7357348;19;20623;-63
2023/07/25 09:52:23;;;;;;;1.33;0.30;;;;;;;18.95;56.92;100620.22;7354397;19;20102;-63
2023/07/25 09:54:50;;;;;;;2.63;0.30;;;;;;;18.96;56.38;100629.88;7356060;19;20014;-64
2023/07/25 09:57:18;;;;;;;2.40;0.30;;;;;;;18.91;57.67;100627.03;7359490;19;20073;-63
2023/07/25 09:59:47;;;;;;;3.10;0.30;;;;;;;18.91;57.54;100632.34;7354500;19;20019;-63
2023/07/25 10:02:15;;;;;;;1.25;0.38;;;;;;;18.87;57.76;100619.66;7359512;19;20035;-61
2023/07/25 10:04:43;;;;;;;0.75;0.30;;;;;;;18.96;57.60;100629.88;7358992;19;20009;-63
2023/07/25 10:07:11;;;;;;;1.63;0.30;;;;;;;19.00;57.83;100628.41;7359140;19;20013;-63
2023/07/25 10:09:38;;;;;;;1.20;0.30;;;;;;;19.12;58.61;100632.06;7359406;19;20014;-62
2023/07/25 10:12:06;;;;;;;3.15;0.40;;;;;;;19.26;60.25;100634.63;7364188;19;20010;-63
2023/07/25 10:14:38;;;;;;;1.85;0.30;;;;;;;19.40;58.58;100626.31;7364678;19;20078;-63
2023/07/25 10:17:06;;;;;;;1.50;0.30;;;;;;;19.51;57.95;100630.19;7367151;19;20218;-62
2023/07/25 10:19:51;;;;;;;1.38;0.35;;;;;;;19.56;55.56;100631.19;7363023;19;20126;-61
2023/07/25 10:22:37;;;;;;;1.75;0.40;;;;;;;19.66;54.98;100627.25;7361664;19;21137;-62
2023/07/25 10:25:26;;;;;;;0.82;0.28;;;;;;;19.77;54.97;100618.50;7362402;19;20460;-63
2023/07/25 10:27:57;;;;;;;4.05;0.40;;;;;;;19.92;52.70;100621.66;7366141;19;20378;-63
2023/07/25 10:30:29;;;;;;;1.65;0.30;;;;;;;19.90;52.38;100623.75;7364153;19;20022;-64
2023/07/25 10:33:01;;;;;;;2.58;0.30;;;;;;;19.95;52.79;100619.38;7363717;19;20499;-62
2023/07/25 10:35:52;;;;;;;1.13;0.28;;;;;;;20.00;53.22;100622.22;7363760;19;20481;-62
2023/07/25 10:38:23;;;;;;;1.67;0.47;;;;;;;20.00;53.05;100622.22;7361684;19;20025;-63
2023/07/25 10:40:52;;;;;;;2.28;0.40;;;;;;;20.05;54.91;100619.69;7364050;19;20011;-62
2023/07/25 10:43:20;;;;;;;1.90;0.40;;;;;;;20.03;54.03;100619.09;7365043;19;20930;-64
2023/07/25 10:45:50;;;;;;;4.40;0.30;;;;;;;20.07;55.30;100611.44;7362172;19;20478;-63
2023/07/25 10:48:43;;;;;;;4.45;0.65;;;;;;;20.17;54.92;100613.59;7365027;19;20102;-62
2023/07/25 10:51:12;;;;;;;3.08;0.50;;;;;;;20.22;54.40;100616.44;7362032;19;20010;-63
2023/07/25 10:53:39;;;;;;;4.10;0.80;;;;;;;20.28;54.38;100616.38;7357243;19;20116;-61
2023/07/25 10:56:07;;;;;;;2.38;0.50;;;;;;;20.35;53.84;100598.47;7366201;19;20045;-63
2023/07/25 10:58:38;;;;;;;1.85;0.50;;;;;;;20.31;52.66;100604.47;7366803;19;20677;-62
2023/07/25 11:01:06;;;;;;;2.63;0.40;;;;;;;20.21;53.76;100602.28;7366284;19;20466;-63
2023/07/25 11:03:36;;;;;;;1.10;0.40;;;;;;;20.11;54.29;100610.00;7348923;19;20082;-62
2023/07/25 11:06:06;;;;;;;3.72;0.40;;;;;;;20.04;55.11;100609.22;7361231;19;20011;-64
2023/07/25 11:08:39;;;;;;;1.92;0.47;;;;;;;19.96;55.29;100609.53;7361979;19;20018;-64
2023/07/25 11:11:12;;;;;;;2.05;0.60;;;;;;;19.87;54.34;100610.81;7353720;19;20051;-61
2023/07/25 11:13:40;;;;;;;1.90;0.60;;;;;;;19.82;53.53;100607.97;7364692;19;20026;-61
2023/07/25 11:16:10;;;;;;;1.70;0.40;;;;;;;19.72;53.36;100611.16;7362621;19;20022;-63
2023/07/25 11:18:50;;;;;;;2.28;0.50;;;;;;;19.71;52.59;100614.06;7361500;19;20014;-62
2023/07/25 11:21:18;;;;;;;3.28;0.55;;;;;;;19.70;52.88;100612.41;7364975;19;20010;-62
2023/07/25 11:23:45;;;;;;;2.58;0.60;;;;;;;19.75;52.31;100613.41;7360762;19;20014;-62
2023/07/25 11:26:13;;;;;;;2.58;0.50;;;;;;;19.74;53.53;100610.94;7365768;19;20021;-61
2023/07/25 11:28:40;;;;;;;2.45;0.60;;;;;;;19.77;52.92;100603.28;7362242;19;20020;-61